createdAt,value
2019-01-21T00:02:42.336Z,16.27
2019-01-21T00:07:35.192Z,16.40
2019-01-21T00:12:28.066Z,16.37
2019-01-21T00:17:22.409Z,17.83
2019-01-21T00:22:15.527Z,16.73
2019-01-21T00:27:08.353Z,18.13
2019-01-21T00:32:01.211Z,18.83
2019-01-21T00:36:54.005Z,17.00
2019-01-21T00:41:46.837Z,17.37
2019-01-21T00:46:39.678Z,16.97
2019-01-21T00:51:32.602Z,16.87
2019-01-21T00:56:25.445Z,16.60
2019-01-21T01:01:18.291Z,16.60
2019-01-21T01:06:11.251Z,16.23
2019-01-21T01:11:04.417Z,16.27
2019-01-21T01:15:58.301Z,17.03
2019-01-21T01:20:51.122Z,15.37
2019-01-21T01:25:44.001Z,15.60
2019-01-21T01:30:36.832Z,15.07
2019-01-21T01:35:29.688Z,15.63
2019-01-21T01:40:22.516Z,14.50
2019-01-21T01:45:21.177Z,15.03
2019-01-21T01:50:14.499Z,15.27
2019-01-21T01:55:09.180Z,14.50
2019-01-21T02:00:03.072Z,14.63
2019-01-21T02:04:56.387Z,14.00
2019-01-21T02:09:49.252Z,14.53
2019-01-21T02:14:42.109Z,14.10
2019-01-21T02:19:37.278Z,13.07
2019-01-21T02:24:37.499Z,12.90
2019-01-21T02:29:56.482Z,13.30
2019-01-21T02:35:41.267Z,13.40
2019-01-21T02:40:56.662Z,13.30
2019-01-21T02:46:38.168Z,12.40
2019-01-21T02:52:11.154Z,11.93
2019-01-21T02:57:58.141Z,13.47
2019-01-21T03:03:57.226Z,13.43
2019-01-21T03:09:41.696Z,14.13
2019-01-21T03:15:54.620Z,14.43
2019-01-21T03:21:55.944Z,13.80
2019-01-21T03:27:58.699Z,14.57
2019-01-21T03:33:34.691Z,12.87
2019-01-21T03:39:22.024Z,14.33
2019-01-21T03:45:24.346Z,13.87
2019-01-21T03:51:19.015Z,12.60
2019-01-21T03:56:22.499Z,13.53
2019-01-21T04:02:33.496Z,14.03
2019-01-21T04:08:27.378Z,13.20
2019-01-21T04:14:17.947Z,12.73
2019-01-21T04:19:35.379Z,12.43
2019-01-21T04:25:33.632Z,13.20
2019-01-21T04:31:18.493Z,13.07
2019-01-21T04:37:27.931Z,13.17
2019-01-21T04:42:56.627Z,12.03
2019-01-21T04:48:06.817Z,12.20
2019-01-21T04:53:47.870Z,11.60
2019-01-21T04:59:44.317Z,11.80
2019-01-21T05:05:02.398Z,12.40
2019-01-21T05:11:07.812Z,11.93
2019-01-21T05:17:09.940Z,12.47
2019-01-21T05:23:20.934Z,12.20
2019-01-21T05:29:06.910Z,12.20
2019-01-21T05:34:59.002Z,12.33
2019-01-21T05:41:04.356Z,12.07
2019-01-21T05:46:38.758Z,12.60
2019-01-21T05:52:26.058Z,13.07
2019-01-21T05:58:16.652Z,14.00
2019-01-21T06:03:58.011Z,11.73
2019-01-21T06:09:53.924Z,12.57
2019-01-21T06:15:43.976Z,12.10
2019-01-21T06:21:25.674Z,11.50
2019-01-21T06:27:13.571Z,12.90
2019-01-21T06:33:04.385Z,12.50
2019-01-21T06:38:46.984Z,11.80
2019-01-21T06:44:38.619Z,11.83
2019-01-21T06:50:18.024Z,12.77
2019-01-21T06:56:14.370Z,12.97
2019-01-21T07:02:03.946Z,12.17
2019-01-21T07:07:37.888Z,12.17
2019-01-21T07:13:10.267Z,12.53
2019-01-21T07:18:45.132Z,12.00
2019-01-21T07:24:22.822Z,12.57
2019-01-21T07:30:15.381Z,12.50
2019-01-21T07:36:30.984Z,13.07
2019-01-21T07:42:06.241Z,10.97
2019-01-21T07:48:07.275Z,13.13
2019-01-21T07:53:56.103Z,14.03
2019-01-21T08:00:00.377Z,13.10
2019-01-21T08:05:51.138Z,13.10
2019-01-21T08:11:30.470Z,12.97
2019-01-21T08:17:22.609Z,13.23
2019-01-21T08:23:14.421Z,13.17
2019-01-21T08:29:14.524Z,13.33
2019-01-21T08:35:13.076Z,13.73
2019-01-21T08:40:48.799Z,13.83
2019-01-21T08:46:47.068Z,14.23
2019-01-21T08:52:34.743Z,13.33
2019-01-21T08:58:40.785Z,14.03
2019-01-21T09:04:06.043Z,14.83
2019-01-21T09:09:32.591Z,14.50
2019-01-21T09:15:19.348Z,14.53
2019-01-21T09:20:50.306Z,15.23
2019-01-21T09:26:15.822Z,14.93
2019-01-21T09:32:09.120Z,14.97
2019-01-21T09:37:36.267Z,14.73
2019-01-21T09:43:11.778Z,14.43
2019-01-21T09:48:03.068Z,15.23
2019-01-21T09:52:55.928Z,16.10
2019-01-21T09:57:57.544Z,15.83
2019-01-21T10:02:52.522Z,15.83
2019-01-21T10:08:43.084Z,17.30
2019-01-21T10:14:26.927Z,16.10
2019-01-21T10:20:19.653Z,17.07
2019-01-21T10:26:05.798Z,17.70
2019-01-21T10:31:59.447Z,19.37
2019-01-21T10:37:55.519Z,18.30
2019-01-21T10:43:43.060Z,17.50
2019-01-21T10:49:36.550Z,18.17
2019-01-21T10:55:04.417Z,17.93
2019-01-21T11:00:53.399Z,18.63
2019-01-21T11:06:58.283Z,19.23
2019-01-21T11:12:32.604Z,20.07
2019-01-21T11:18:17.640Z,18.73
2019-01-21T11:24:00.216Z,21.40
2019-01-21T11:29:17.925Z,21.37
2019-01-21T11:34:46.784Z,21.00
2019-01-21T11:40:50.230Z,20.70
2019-01-21T11:46:25.735Z,19.77
2019-01-21T11:52:04.016Z,22.43
2019-01-21T11:58:20.247Z,21.60
2019-01-21T12:03:32.034Z,19.43
2019-01-21T12:09:12.337Z,20.87
2019-01-21T12:14:51.057Z,19.67
2019-01-21T12:20:56.499Z,20.23
2019-01-21T12:26:40.868Z,19.07
2019-01-21T12:32:05.396Z,20.70
2019-01-21T12:37:43.285Z,20.17
2019-01-21T12:43:30.359Z,18.23
2019-01-21T12:49:03.982Z,19.83
2019-01-21T12:54:56.864Z,21.13
2019-01-21T13:01:02.747Z,19.13
2019-01-21T13:07:10.842Z,19.63
2019-01-21T13:12:58.583Z,15.90
2019-01-21T13:18:38.186Z,15.93
2019-01-21T13:24:24.939Z,15.63
2019-01-21T13:30:27.437Z,14.53
2019-01-21T13:36:26.828Z,13.87
2019-01-21T13:41:53.236Z,16.00
2019-01-21T13:48:00.093Z,14.87
2019-01-21T13:53:53.504Z,15.33
2019-01-21T13:59:56.058Z,15.63
2019-01-21T14:05:18.506Z,16.33
2019-01-21T14:11:04.071Z,14.73
2019-01-21T14:16:39.282Z,15.57
2019-01-21T14:22:12.830Z,15.33
2019-01-21T14:28:16.682Z,15.93
2019-01-21T14:33:43.074Z,15.57
2019-01-21T14:39:27.902Z,16.33
2019-01-21T14:45:33.318Z,16.13
2019-01-21T14:51:34.796Z,15.63
2019-01-21T14:57:47.729Z,15.83
2019-01-21T15:03:43.551Z,16.83
2019-01-21T15:08:58.144Z,16.53
2019-01-21T15:15:02.080Z,16.70
2019-01-21T15:20:48.943Z,16.80
2019-01-21T15:26:33.025Z,17.80
2019-01-21T15:32:12.333Z,19.07
2019-01-21T15:37:52.911Z,19.93
2019-01-21T15:43:34.141Z,19.27
2019-01-21T15:48:56.177Z,20.57
2019-01-21T15:54:32.169Z,20.10
2019-01-21T16:00:06.938Z,18.60
2019-01-21T16:05:47.160Z,19.90
2019-01-21T16:11:35.371Z,20.40
2019-01-21T16:17:26.450Z,20.97
2019-01-21T16:23:18.513Z,20.00
2019-01-21T16:28:47.783Z,21.13
2019-01-21T16:34:24.214Z,20.67
2019-01-21T16:40:04.541Z,18.70
2019-01-21T16:45:00.768Z,19.37
2019-01-21T16:49:58.112Z,19.87
2019-01-21T16:54:51.203Z,18.33
2019-01-21T16:59:44.567Z,19.17
2019-01-21T17:04:38.560Z,19.03
2019-01-21T17:09:32.738Z,17.97
2019-01-21T17:14:26.554Z,16.50
2019-01-21T17:19:19.676Z,16.40
2019-01-21T17:24:12.815Z,15.67
2019-01-21T17:29:05.960Z,15.57
2019-01-21T17:34:20.756Z,16.10
2019-01-21T17:39:13.832Z,15.47
2019-01-21T17:44:07.827Z,15.47
2019-01-21T17:49:00.908Z,16.50
2019-01-21T17:53:54.454Z,32.87
2019-01-21T17:58:47.803Z,18.50
2019-01-21T18:03:40.643Z,31.97
2019-01-21T18:08:33.665Z,21.67
2019-01-21T18:13:27.191Z,20.90
2019-01-21T18:18:20.034Z,19.30
2019-01-21T18:23:13.240Z,22.27
2019-01-21T18:28:06.499Z,19.20
2019-01-21T18:32:59.653Z,19.43
2019-01-21T18:37:53.311Z,19.93
2019-01-21T18:42:47.386Z,20.93
2019-01-21T18:47:40.528Z,21.90
2019-01-21T18:52:34.377Z,20.53
2019-01-21T18:57:27.819Z,20.03
2019-01-21T19:02:20.667Z,20.27
2019-01-21T19:07:14.414Z,21.53
2019-01-21T19:12:07.929Z,21.57
2019-01-21T19:17:01.026Z,20.33
2019-01-21T19:21:54.372Z,20.60
2019-01-21T19:26:47.272Z,21.53
2019-01-21T19:31:40.945Z,20.87
2019-01-21T19:36:33.780Z,20.93
2019-01-21T19:41:26.809Z,22.17
2019-01-21T19:46:19.940Z,22.33
2019-01-21T19:51:13.046Z,26.07
2019-01-21T19:56:05.906Z,26.27
2019-01-21T20:00:58.742Z,22.30
2019-01-21T20:05:51.572Z,23.97
2019-01-21T20:10:44.405Z,22.53
2019-01-21T20:15:38.261Z,29.57
2019-01-21T20:20:35.221Z,22.80
2019-01-21T20:25:28.102Z,28.20
2019-01-21T20:30:21.420Z,22.57
2019-01-21T20:35:15.530Z,26.87
2019-01-21T20:40:14.451Z,24.67
2019-01-21T20:45:08.563Z,21.63
2019-01-21T20:50:01.454Z,23.43
2019-01-21T20:54:54.575Z,22.50
2019-01-21T20:59:47.474Z,24.33
2019-01-21T21:04:40.364Z,24.50
2019-01-21T21:09:33.243Z,23.00
2019-01-21T21:14:26.120Z,24.47
2019-01-21T21:19:18.996Z,23.40
2019-01-21T21:24:11.883Z,37.03
2019-01-21T21:29:04.758Z,27.57
2019-01-21T21:33:57.741Z,22.70
2019-01-21T21:38:50.609Z,24.07
2019-01-21T21:43:43.572Z,23.87
2019-01-21T21:48:36.537Z,25.63
2019-01-21T21:53:29.410Z,22.00
2019-01-21T21:58:22.549Z,24.07
2019-01-21T22:03:18.173Z,22.73
2019-01-21T22:08:15.120Z,22.83
2019-01-21T22:13:08.391Z,23.10
2019-01-21T22:18:01.346Z,22.93
2019-01-21T22:22:54.215Z,21.67
2019-01-21T22:27:47.215Z,21.27
2019-01-21T22:32:40.288Z,20.50
2019-01-21T22:37:33.144Z,21.50
2019-01-21T22:42:26.367Z,21.43
2019-01-21T22:47:19.178Z,21.60
2019-01-21T22:52:12.053Z,22.67
2019-01-21T22:57:04.908Z,22.17
2019-01-21T23:01:57.945Z,22.93
2019-01-21T23:06:50.764Z,21.80
2019-01-21T23:11:43.642Z,22.30
2019-01-21T23:16:36.645Z,20.03
2019-01-21T23:21:29.748Z,20.90
2019-01-21T23:26:25.015Z,21.87
2019-01-21T23:31:17.888Z,20.03
2019-01-21T23:36:10.888Z,21.43
2019-01-21T23:41:04.124Z,20.17
2019-01-21T23:45:57.507Z,20.57
2019-01-21T23:50:50.342Z,20.37
2019-01-21T23:55:43.182Z,21.37
